createdAt,value
2018-07-07T00:03:59.370Z,6.77
2018-07-07T00:08:02.597Z,6.20
2018-07-07T00:12:05.805Z,6.17
2018-07-07T00:16:09.040Z,5.50
2018-07-07T00:20:12.334Z,5.57
2018-07-07T00:24:15.541Z,4.43
2018-07-07T00:28:18.756Z,6.00
2018-07-07T00:32:21.997Z,4.83
2018-07-07T00:36:24.959Z,6.03
2018-07-07T00:40:28.200Z,6.03
2018-07-07T00:44:31.180Z,6.00
2018-07-07T00:48:34.402Z,6.17
2018-07-07T00:52:37.350Z,5.27
2018-07-07T00:56:40.576Z,0.17
2018-07-07T01:00:51.946Z,0.10
2018-07-07T01:04:55.466Z,0.10
2018-07-07T01:08:58.884Z,0.00
2018-07-07T01:13:02.104Z,0.10
2018-07-07T01:17:05.385Z,0.00
2018-07-07T01:21:08.616Z,0.00
2018-07-07T01:25:11.576Z,0.00
2018-07-07T01:29:14.790Z,0.57
2018-07-07T01:33:18.016Z,0.00
2018-07-07T01:37:21.243Z,0.00
2018-07-07T01:41:24.478Z,0.00
2018-07-07T01:45:27.716Z,0.00
2018-07-07T01:49:30.971Z,0.00
2018-07-07T01:53:34.184Z,0.00
2018-07-07T01:57:37.384Z,0.00
2018-07-07T02:01:40.749Z,0.00
2018-07-07T02:05:44.791Z,0.00
2018-07-07T02:09:47.736Z,0.00
2018-07-07T02:13:50.957Z,0.00
2018-07-07T02:17:54.180Z,0.00
2018-07-07T02:21:57.127Z,0.00
2018-07-07T02:26:00.346Z,0.00
2018-07-07T02:30:03.581Z,0.00
2018-07-07T02:34:06.806Z,0.00
2018-07-07T02:38:09.755Z,0.00
2018-07-07T02:42:13.008Z,0.00
2018-07-07T02:46:16.293Z,0.00
2018-07-07T02:50:19.453Z,0.10
2018-07-07T02:54:22.391Z,0.00
2018-07-07T02:58:25.621Z,0.00
2018-07-07T03:02:28.837Z,0.00
2018-07-07T03:06:32.049Z,0.00
2018-07-07T03:10:35.384Z,0.00
2018-07-07T03:14:38.593Z,0.00
2018-07-07T03:18:41.833Z,0.00
2018-07-07T03:22:45.765Z,0.00
2018-07-07T03:26:48.993Z,0.00
2018-07-07T03:30:53.653Z,0.10
2018-07-07T03:34:56.656Z,0.10
2018-07-07T03:38:59.901Z,0.00
2018-07-07T03:43:02.856Z,0.00
2018-07-07T03:47:06.068Z,0.10
2018-07-07T03:51:09.307Z,0.00
2018-07-07T03:55:12.252Z,0.10
2018-07-07T03:59:15.468Z,0.00
2018-07-07T04:03:18.689Z,0.10
2018-07-07T04:07:21.961Z,0.33
2018-07-07T04:11:25.118Z,0.10
2018-07-07T04:15:28.099Z,0.00
2018-07-07T04:19:31.368Z,3.40
2018-07-07T04:23:35.120Z,4.90
2018-07-07T04:27:38.344Z,3.20
2018-07-07T04:31:41.590Z,4.13
2018-07-07T04:35:44.836Z,3.73
2018-07-07T04:39:48.041Z,4.50
2018-07-07T04:43:51.384Z,4.00
2018-07-07T04:47:54.617Z,3.50
2018-07-07T04:51:57.870Z,4.50
2018-07-07T04:56:00.833Z,4.37
2018-07-07T05:00:04.354Z,4.33
2018-07-07T05:04:07.578Z,4.37
2018-07-07T05:08:10.522Z,4.37
2018-07-07T05:12:13.802Z,4.07
2018-07-07T05:16:17.009Z,3.43
2018-07-07T05:20:20.214Z,4.07
2018-07-07T05:24:23.453Z,4.60
2018-07-07T05:28:26.666Z,4.70
2018-07-07T05:32:29.967Z,3.97
2018-07-07T05:36:33.180Z,3.70
2018-07-07T05:40:36.501Z,4.00
2018-07-07T05:44:39.732Z,3.73
2018-07-07T05:48:42.968Z,2.90
2018-07-07T05:52:46.204Z,3.27
2018-07-07T05:56:49.428Z,3.23
2018-07-07T06:00:52.650Z,3.07
2018-07-07T06:04:55.860Z,3.47
2018-07-07T06:08:58.808Z,3.03
2018-07-07T06:13:02.037Z,3.20
2018-07-07T06:17:05.401Z,3.30
2018-07-07T06:21:08.637Z,3.47
2018-07-07T06:25:11.852Z,2.97
2018-07-07T06:29:15.105Z,3.08
2018-07-07T06:33:18.357Z,3.60
2018-07-07T06:37:21.637Z,3.47
2018-07-07T06:41:24.809Z,3.45
2018-07-07T06:45:28.031Z,3.08
2018-07-07T06:49:31.295Z,2.75
2018-07-07T06:53:34.270Z,2.58
2018-07-07T06:57:37.513Z,2.58
2018-07-07T07:01:40.903Z,2.60
2018-07-07T07:05:43.863Z,3.25
2018-07-07T07:09:47.090Z,2.60
2018-07-07T07:13:50.319Z,2.40
2018-07-07T07:17:53.532Z,2.30
2018-07-07T07:21:56.757Z,2.05
2018-07-07T07:26:00.029Z,2.02
2018-07-07T07:30:03.197Z,1.92
2018-07-07T07:34:06.441Z,1.98
2018-07-07T07:38:09.667Z,1.70
2018-07-07T07:42:12.900Z,1.60
2018-07-07T07:46:16.134Z,1.52
2018-07-07T07:50:19.095Z,2.00
2018-07-07T07:54:22.446Z,1.50
2018-07-07T07:58:25.391Z,1.50
2018-07-07T08:02:28.663Z,1.67
2018-07-07T08:06:31.877Z,1.57
2018-07-07T08:10:35.108Z,1.52
2018-07-07T08:14:38.348Z,1.75
2018-07-07T08:18:41.629Z,1.72
2018-07-07T08:22:44.856Z,1.60
2018-07-07T08:26:48.126Z,1.70
2018-07-07T08:30:51.378Z,1.35
2018-07-07T08:34:55.065Z,2.05
2018-07-07T08:38:58.296Z,1.72
2018-07-07T08:43:01.260Z,1.30
2018-07-07T08:47:04.482Z,1.60
2018-07-07T08:51:07.717Z,2.00
2018-07-07T08:55:10.924Z,1.90
2018-07-07T08:59:14.179Z,1.65
2018-07-07T09:03:17.401Z,1.62
2018-07-07T09:07:20.398Z,1.37
2018-07-07T09:11:23.623Z,2.20
2018-07-07T09:15:27.293Z,2.02
2018-07-07T09:19:30.523Z,2.15
2018-07-07T09:23:33.757Z,1.50
2018-07-07T09:27:36.969Z,2.27
2018-07-07T09:31:40.205Z,2.02
2018-07-07T09:35:43.441Z,2.17
2018-07-07T09:39:46.668Z,2.40
2018-07-07T09:43:50.241Z,2.35
2018-07-07T09:47:53.470Z,2.30
2018-07-07T09:51:56.452Z,2.80
2018-07-07T09:55:59.692Z,2.45
2018-07-07T10:00:02.952Z,2.70
2018-07-07T10:04:06.172Z,2.08
2018-07-07T10:08:09.568Z,1.95
2018-07-07T10:12:12.798Z,2.30
2018-07-07T10:16:16.032Z,1.90
2018-07-07T10:20:19.258Z,2.35
2018-07-07T10:24:22.490Z,2.12
2018-07-07T10:28:25.740Z,2.22
2018-07-07T10:32:28.968Z,1.92
2018-07-07T10:36:32.188Z,2.10
2018-07-07T10:40:35.412Z,1.90
2018-07-07T10:44:38.371Z,2.08
2018-07-07T10:48:41.601Z,2.00
2018-07-07T10:52:44.833Z,1.92
2018-07-07T10:56:48.048Z,1.90
2018-07-07T11:00:51.297Z,2.02
2018-07-07T11:04:54.524Z,1.80
2018-07-07T11:08:57.499Z,1.75
2018-07-07T11:13:00.730Z,1.70
2018-07-07T11:17:03.966Z,1.52
2018-07-07T11:21:07.185Z,1.70
2018-07-07T11:25:10.419Z,1.50
2018-07-07T11:29:13.625Z,1.60
2018-07-07T11:33:16.852Z,1.55
2018-07-07T11:37:19.807Z,1.65
2018-07-07T11:41:23.638Z,1.80
2018-07-07T11:45:26.866Z,1.90
2018-07-07T11:49:30.085Z,1.70
2018-07-07T11:53:33.337Z,2.30
2018-07-07T11:57:36.566Z,1.65
2018-07-07T12:01:39.801Z,1.98
2018-07-07T12:05:43.034Z,2.27
2018-07-07T12:09:46.282Z,2.10
2018-07-07T12:13:49.838Z,1.90
2018-07-07T12:17:53.061Z,2.00
2018-07-07T12:21:56.307Z,2.60
2018-07-07T12:25:59.537Z,2.50
2018-07-07T12:30:02.765Z,2.27
2018-07-07T12:34:06.193Z,2.10
2018-07-07T12:38:09.409Z,2.12
2018-07-07T12:42:12.641Z,2.22
2018-07-07T12:46:15.856Z,2.10
2018-07-07T12:50:19.084Z,1.70
2018-07-07T12:54:22.314Z,2.15
2018-07-07T12:58:25.542Z,1.80
2018-07-07T13:02:28.781Z,2.10
2018-07-07T13:06:32.001Z,2.40
2018-07-07T13:10:35.260Z,2.40
2018-07-07T13:14:38.486Z,2.17
2018-07-07T13:18:41.733Z,2.22
2018-07-07T13:22:44.955Z,2.20
2018-07-07T13:26:48.270Z,2.27
2018-07-07T13:30:51.172Z,2.15
2018-07-07T13:34:54.405Z,2.20
2018-07-07T13:38:57.631Z,2.30
2018-07-07T13:43:00.832Z,2.10
2018-07-07T13:47:04.169Z,2.17
2018-07-07T13:51:07.408Z,2.20
2018-07-07T13:55:10.429Z,2.25
2018-07-07T13:59:13.645Z,2.27
2018-07-07T14:03:16.866Z,2.10
2018-07-07T14:07:20.105Z,2.20
2018-07-07T14:11:23.349Z,2.10
2018-07-07T14:15:26.577Z,2.17
2018-07-07T14:19:29.838Z,2.27
2018-07-07T14:23:32.815Z,1.82
2018-07-07T14:27:36.005Z,1.90
2018-07-07T14:31:39.242Z,1.75
2018-07-07T14:35:42.201Z,1.72
2018-07-07T14:39:53.309Z,1.95
2018-07-07T14:44:00.891Z,1.80
2018-07-07T14:48:04.890Z,2.47
2018-07-07T14:52:08.133Z,1.77
2018-07-07T14:56:11.452Z,1.67
2018-07-07T15:00:17.625Z,1.90
2018-07-07T15:04:20.846Z,1.87
2018-07-07T15:08:23.813Z,1.92
2018-07-07T15:12:27.017Z,2.02
2018-07-07T15:16:30.240Z,2.47
2018-07-07T15:20:33.203Z,1.65
2018-07-07T15:24:36.453Z,2.00
2018-07-07T15:28:39.403Z,1.90
2018-07-07T15:32:42.638Z,2.00
2018-07-07T15:36:45.858Z,9.35
2018-07-07T15:40:49.100Z,2.30
2018-07-07T15:44:52.349Z,2.10
2018-07-07T15:48:55.570Z,1.70
2018-07-07T15:52:58.833Z,1.98
2018-07-07T15:57:02.071Z,2.10
2018-07-07T16:01:05.037Z,1.67
2018-07-07T16:05:08.281Z,2.02
2018-07-07T16:09:11.506Z,2.10
2018-07-07T16:13:14.736Z,1.67
2018-07-07T16:17:17.962Z,1.80
2018-07-07T16:21:21.198Z,1.80
2018-07-07T16:25:24.429Z,2.00
2018-07-07T16:29:27.685Z,2.30
2018-07-07T16:33:30.905Z,1.80
2018-07-07T16:37:33.884Z,2.33
2018-07-07T16:41:37.200Z,1.67
2018-07-07T16:45:40.176Z,1.85
2018-07-07T16:49:43.506Z,1.57
2018-07-07T16:53:47.212Z,2.17
2018-07-07T16:57:50.477Z,1.85
2018-07-07T17:01:53.760Z,2.00
2018-07-07T17:05:57.036Z,2.00
2018-07-07T17:10:00.048Z,2.10
2018-07-07T17:14:03.277Z,1.62
2018-07-07T17:18:06.573Z,1.82
2018-07-07T17:22:09.816Z,2.00
2018-07-07T17:26:13.475Z,1.87
2018-07-07T17:30:16.702Z,2.00
2018-07-07T17:34:19.921Z,2.15
2018-07-07T17:38:23.219Z,5.15
2018-07-07T17:42:26.496Z,1.80
2018-07-07T17:46:29.713Z,1.72
2018-07-07T17:50:32.946Z,1.80
2018-07-07T17:54:36.201Z,1.90
2018-07-07T17:58:39.160Z,1.70
2018-07-07T18:02:42.426Z,1.90
2018-07-07T18:06:45.641Z,1.47
2018-07-07T18:10:48.869Z,1.77
2018-07-07T18:14:52.112Z,1.57
2018-07-07T18:18:55.340Z,1.60
2018-07-07T18:22:58.569Z,1.57
2018-07-07T18:27:02.096Z,1.60
2018-07-07T18:31:05.356Z,1.55
2018-07-07T18:35:08.583Z,1.57
2018-07-07T18:39:11.797Z,1.42
2018-07-07T18:43:15.085Z,1.20
2018-07-07T18:47:18.313Z,1.67
2018-07-07T18:51:21.541Z,1.40
2018-07-07T18:55:24.753Z,1.22
2018-07-07T18:59:28.439Z,1.77
2018-07-07T19:03:31.677Z,1.40
2018-07-07T19:07:34.928Z,1.47
2018-07-07T19:11:38.350Z,1.65
2018-07-07T19:15:45.354Z,1.35
2018-07-07T19:19:48.598Z,1.47
2018-07-07T19:23:57.152Z,1.30
2018-07-07T19:28:00.397Z,1.70
2018-07-07T19:32:08.900Z,1.55
2018-07-07T19:36:17.538Z,1.30
2018-07-07T19:40:20.764Z,1.20
2018-07-07T19:44:24.668Z,1.30
2018-07-07T19:48:27.894Z,1.20
2018-07-07T19:52:31.155Z,1.30
2018-07-07T19:56:34.442Z,1.20
2018-07-07T20:00:37.689Z,1.62
2018-07-07T20:04:40.917Z,1.55
2018-07-07T20:08:44.142Z,1.22
2018-07-07T20:12:47.104Z,1.45
2018-07-07T20:17:11.192Z,1.70
2018-07-07T20:21:57.837Z,1.50
2018-07-07T20:26:01.820Z,1.98
2018-07-07T20:30:05.086Z,1.60
2018-07-07T20:34:08.309Z,1.60
2018-07-07T20:38:11.678Z,1.67
2018-07-07T20:42:14.631Z,2.50
2018-07-07T20:46:17.853Z,1.67
2018-07-07T20:50:21.132Z,1.52
2018-07-07T20:54:24.379Z,1.60
2018-07-07T20:58:27.614Z,1.70
2018-07-07T21:02:30.828Z,1.33
2018-07-07T21:06:34.382Z,1.90
2018-07-07T21:10:37.668Z,2.10
2018-07-07T21:14:40.892Z,1.50
2018-07-07T21:18:44.126Z,1.90
2018-07-07T21:22:47.083Z,1.63
2018-07-07T21:26:50.297Z,1.97
2018-07-07T21:30:53.549Z,1.57
2018-07-07T21:34:56.762Z,1.50
2018-07-07T21:38:59.982Z,1.60
2018-07-07T21:43:03.237Z,1.87
2018-07-07T21:47:06.186Z,1.90
2018-07-07T21:51:09.408Z,1.60
2018-07-07T21:55:12.662Z,1.40
2018-07-07T21:59:17.760Z,1.53
2018-07-07T22:03:26.404Z,1.60
2018-07-07T22:07:34.917Z,2.10
2018-07-07T22:11:38.142Z,1.97
2018-07-07T22:15:41.360Z,1.77
2018-07-07T22:19:44.610Z,2.10
2018-07-07T22:23:47.912Z,1.93
2018-07-07T22:27:51.151Z,1.97
2018-07-07T22:31:55.199Z,1.70
2018-07-07T22:36:05.753Z,1.60
2018-07-07T22:40:08.995Z,1.70
2018-07-07T22:44:12.216Z,1.63
2018-07-07T22:48:15.441Z,1.87
2018-07-07T22:52:19.154Z,1.90
2018-07-07T22:56:22.364Z,1.57
2018-07-07T23:00:33.048Z,1.60
2018-07-07T23:04:36.295Z,1.90
2018-07-07T23:08:39.513Z,1.60
2018-07-07T23:12:42.936Z,2.10
2018-07-07T23:16:46.157Z,2.00
2018-07-07T23:20:49.374Z,1.73
2018-07-07T23:24:52.598Z,2.03
2018-07-07T23:28:55.820Z,1.97
2018-07-07T23:32:59.076Z,2.03
2018-07-07T23:37:02.302Z,1.80
2018-07-07T23:41:05.522Z,1.87
2018-07-07T23:45:10.056Z,1.90
2018-07-07T23:49:13.277Z,2.00
2018-07-07T23:53:16.533Z,1.67
2018-07-07T23:57:19.770Z,2.00
